sensor_id;sensor_type;location;lat;lon;timestamp;temperature;humidity
67890;DHT22;54685;52.082;5.426;2022-10-16T00:01:34;12.90;99.90
67890;DHT22;54685;52.082;5.426;2022-10-16T00:04:02;12.90;99.90
67890;DHT22;54685;52.082;5.426;2022-10-16T00:06:30;12.90;99.90
67890;DHT22;54685;52.082;5.426;2022-10-16T00:08:57;12.90;99.90
67890;DHT22;54685;52.082;5.426;2022-10-16T00:11:27;12.90;99.90
67890;DHT22;54685;52.082;5.426;2022-10-16T00:13:57;12.90;99.90
67890;DHT22;54685;52.082;5.426;2022-10-16T00:16:24;12.90;99.90
67890;DHT22;54685;52.082;5.426;2022-10-16T00:18:51;12.90;99.90
67890;DHT22;54685;52.082;5.426;2022-10-16T00:21:24;12.90;99.90
67890;DHT22;54685;52.082;5.426;2022-10-16T00:23:53;12.90;99.90
67890;DHT22;54685;52.082;5.426;2022-10-16T00:26:21;12.90;99.90
67890;DHT22;54685;52.082;5.426;2022-10-16T00:28:49;12.80;99.90
67890;DHT22;54685;52.082;5.426;2022-10-16T00:31:19;12.80;99.90
67890;DHT22;54685;52.082;5.426;2022-10-16T00:33:46;12.90;99.90
67890;DHT22;54685;52.082;5.426;2022-10-16T00:36:15;12.90;99.90
67890;DHT22;54685;52.082;5.426;2022-10-16T00:38:42;12.90;99.90
67890;DHT22;54685;52.082;5.426;2022-10-16T00:41:12;12.90;99.90
67890;DHT22;54685;52.082;5.426;2022-10-16T00:43:54;12.90;99.90
67890;DHT22;54685;52.082;5.426;2022-10-16T00:46:22;12.90;99.90
67890;DHT22;54685;52.082;5.426;2022-10-16T00:48:59;12.90;99.90
67890;DHT22;54685;52.082;5.426;2022-10-16T00:51:32;13.00;99.90
67890;DHT22;54685;52.082;5.426;2022-10-16T00:54:00;13.00;99.90
67890;DHT22;54685;52.082;5.426;2022-10-16T00:56:27;13.00;99.90
67890;DHT22;54685;52.082;5.426;2022-10-16T00:58:54;13.00;99.90
67890;DHT22;54685;52.082;5.426;2022-10-16T01:01:21;13.00;99.90
67890;DHT22;54685;52.082;5.426;2022-10-16T01:03:48;13.10;99.90
67890;DHT22;54685;52.082;5.426;2022-10-16T01:14:57;13.20;99.90
67890;DHT22;54685;52.082;5.426;2022-10-16T01:17:35;13.20;99.90
67890;DHT22;54685;52.082;5.426;2022-10-16T01:28:22;13.30;99.90
67890;DHT22;54685;52.082;5.426;2022-10-16T01:30:53;13.30;99.90
67890;DHT22;54685;52.082;5.426;2022-10-16T01:33:44;13.30;99.90
67890;DHT22;54685;52.082;5.426;2022-10-16T01:36:18;13.30;99.90
67890;DHT22;54685;52.082;5.426;2022-10-16T01:38:50;13.30;99.90
67890;DHT22;54685;52.082;5.426;2022-10-16T01:41:21;13.30;99.90
67890;DHT22;54685;52.082;5.426;2022-10-16T01:44:06;13.30;99.90
67890;DHT22;54685;52.082;5.426;2022-10-16T01:46:38;13.30;99.90
67890;DHT22;54685;52.082;5.426;2022-10-16T01:49:06;13.30;99.90
67890;DHT22;54685;52.082;5.426;2022-10-16T01:51:35;13.30;99.90
67890;DHT22;54685;52.082;5.426;2022-10-16T01:54:05;13.30;99.90
67890;DHT22;54685;52.082;5.426;2022-10-16T01:56:34;13.30;99.90
67890;DHT22;54685;52.082;5.426;2022-10-16T01:59:05;13.30;99.90
67890;DHT22;54685;52.082;5.426;2022-10-16T02:01:35;13.30;99.90
67890;DHT22;54685;52.082;5.426;2022-10-16T02:04:33;13.30;99.90
67890;DHT22;54685;52.082;5.426;2022-10-16T02:07:01;13.30;99.90
67890;DHT22;54685;52.082;5.426;2022-10-16T02:09:27;13.30;99.90
67890;DHT22;54685;52.082;5.426;2022-10-16T02:11:57;13.30;99.90
67890;DHT22;54685;52.082;5.426;2022-10-16T02:14:26;13.30;99.90
67890;DHT22;54685;52.082;5.426;2022-10-16T02:16:53;13.30;99.90
67890;DHT22;54685;52.082;5.426;2022-10-16T02:19:21;13.30;99.90
67890;DHT22;54685;52.082;5.426;2022-10-16T02:21:55;13.30;99.90
67890;DHT22;54685;52.082;5.426;2022-10-16T02:24:50;13.30;99.90
67890;DHT22;54685;52.082;5.426;2022-10-16T02:27:41;13.30;99.90
67890;DHT22;54685;52.082;5.426;2022-10-16T02:30:21;13.30;99.90
67890;DHT22;54685;52.082;5.426;2022-10-16T02:32:48;13.30;99.90
67890;DHT22;54685;52.082;5.426;2022-10-16T02:35:17;13.30;99.90
67890;DHT22;54685;52.082;5.426;2022-10-16T02:37:46;13.30;99.90
67890;DHT22;54685;52.082;5.426;2022-10-16T02:40:13;13.20;99.90
67890;DHT22;54685;52.082;5.426;2022-10-16T02:42:41;13.20;99.90
67890;DHT22;54685;52.082;5.426;2022-10-16T02:45:09;13.20;99.90
67890;DHT22;54685;52.082;5.426;2022-10-16T02:47:37;13.20;99.90
67890;DHT22;54685;52.082;5.426;2022-10-16T02:50:04;13.20;99.90
67890;DHT22;54685;52.082;5.426;2022-10-16T02:52:31;13.20;99.90
67890;DHT22;54685;52.082;5.426;2022-10-16T02:54:58;13.20;99.90
67890;DHT22;54685;52.082;5.426;2022-10-16T02:57:24;13.10;99.90
67890;DHT22;54685;52.082;5.426;2022-10-16T02:59:52;13.10;99.90
67890;DHT22;54685;52.082;5.426;2022-10-16T03:02:18;13.10;99.90
67890;DHT22;54685;52.082;5.426;2022-10-16T03:04:45;13.10;99.90
67890;DHT22;54685;52.082;5.426;2022-10-16T03:07:12;13.10;99.90
67890;DHT22;54685;52.082;5.426;2022-10-16T03:09:38;13.10;99.90
67890;DHT22;54685;52.082;5.426;2022-10-16T03:12:05;13.10;99.90
67890;DHT22;54685;52.082;5.426;2022-10-16T03:14:33;13.10;99.90
67890;DHT22;54685;52.082;5.426;2022-10-16T03:16:59;13.10;99.90
67890;DHT22;54685;52.082;5.426;2022-10-16T03:19:26;13.10;99.90
67890;DHT22;54685;52.082;5.426;2022-10-16T03:21:53;13.10;99.90
67890;DHT22;54685;52.082;5.426;2022-10-16T03:24:19;13.10;99.90
67890;DHT22;54685;52.082;5.426;2022-10-16T03:26:46;13.10;99.90
67890;DHT22;54685;52.082;5.426;2022-10-16T03:29:13;13.10;99.90
67890;DHT22;54685;52.082;5.426;2022-10-16T03:31:40;13.10;99.90
67890;DHT22;54685;52.082;5.426;2022-10-16T03:34:07;13.10;99.90
67890;DHT22;54685;52.082;5.426;2022-10-16T03:36:33;13.00;99.90
67890;DHT22;54685;52.082;5.426;2022-10-16T03:39:01;13.00;99.90
67890;DHT22;54685;52.082;5.426;2022-10-16T03:41:28;13.00;99.90
67890;DHT22;54685;52.082;5.426;2022-10-16T03:43:54;13.00;99.90
67890;DHT22;54685;52.082;5.426;2022-10-16T03:46:21;13.00;99.90
67890;DHT22;54685;52.082;5.426;2022-10-16T03:48:48;12.90;99.90
67890;DHT22;54685;52.082;5.426;2022-10-16T03:51:15;12.90;99.90
67890;DHT22;54685;52.082;5.426;2022-10-16T03:53:42;12.90;99.90
67890;DHT22;54685;52.082;5.426;2022-10-16T03:56:09;12.90;99.90
67890;DHT22;54685;52.082;5.426;2022-10-16T03:58:35;12.80;99.90
67890;DHT22;54685;52.082;5.426;2022-10-16T04:01:02;12.80;99.90
67890;DHT22;54685;52.082;5.426;2022-10-16T04:03:29;12.80;99.90
67890;DHT22;54685;52.082;5.426;2022-10-16T04:05:56;12.80;99.90
67890;DHT22;54685;52.082;5.426;2022-10-16T04:08:23;12.80;99.90
67890;DHT22;54685;52.082;5.426;2022-10-16T04:10:50;12.80;99.90
67890;DHT22;54685;52.082;5.426;2022-10-16T04:13:17;12.80;99.90
67890;DHT22;54685;52.082;5.426;2022-10-16T04:15:45;12.80;99.90
67890;DHT22;54685;52.082;5.426;2022-10-16T04:18:12;12.80;99.90
67890;DHT22;54685;52.082;5.426;2022-10-16T04:20:39;12.80;99.90
67890;DHT22;54685;52.082;5.426;2022-10-16T04:23:06;12.80;99.90
67890;DHT22;54685;52.082;5.426;2022-10-16T04:25:32;12.80;99.90
67890;DHT22;54685;52.082;5.426;2022-10-16T04:27:59;12.80;99.90
67890;DHT22;54685;52.082;5.426;2022-10-16T04:30:26;12.80;99.90
67890;DHT22;54685;52.082;5.426;2022-10-16T04:32:53;12.80;99.90
67890;DHT22;54685;52.082;5.426;2022-10-16T04:35:21;12.80;99.90
67890;DHT22;54685;52.082;5.426;2022-10-16T04:37:50;12.70;99.90
67890;DHT22;54685;52.082;5.426;2022-10-16T04:40:17;12.80;99.90
67890;DHT22;54685;52.082;5.426;2022-10-16T04:42:43;12.80;99.90
67890;DHT22;54685;52.082;5.426;2022-10-16T04:45:10;12.80;99.90
67890;DHT22;54685;52.082;5.426;2022-10-16T04:47:43;12.80;99.90
67890;DHT22;54685;52.082;5.426;2022-10-16T04:50:09;12.80;99.90
67890;DHT22;54685;52.082;5.426;2022-10-16T04:52:37;12.70;99.90
67890;DHT22;54685;52.082;5.426;2022-10-16T04:55:04;12.70;99.90
67890;DHT22;54685;52.082;5.426;2022-10-16T04:57:31;12.70;99.90
67890;DHT22;54685;52.082;5.426;2022-10-16T04:59:59;12.70;99.90
67890;DHT22;54685;52.082;5.426;2022-10-16T05:02:26;12.70;99.90
67890;DHT22;54685;52.082;5.426;2022-10-16T05:04:53;12.70;99.90
67890;DHT22;54685;52.082;5.426;2022-10-16T05:07:20;12.70;99.90
67890;DHT22;54685;52.082;5.426;2022-10-16T05:09:46;12.70;99.90
67890;DHT22;54685;52.082;5.426;2022-10-16T05:12:13;12.70;99.90
67890;DHT22;54685;52.082;5.426;2022-10-16T05:14:40;12.70;99.90
67890;DHT22;54685;52.082;5.426;2022-10-16T05:17:06;12.60;99.90
67890;DHT22;54685;52.082;5.426;2022-10-16T05:19:33;12.60;99.90
67890;DHT22;54685;52.082;5.426;2022-10-16T05:22:00;12.60;99.90
67890;DHT22;54685;52.082;5.426;2022-10-16T05:24:27;12.60;99.90
67890;DHT22;54685;52.082;5.426;2022-10-16T05:26:53;12.60;99.90
67890;DHT22;54685;52.082;5.426;2022-10-16T05:29:20;12.50;99.90
67890;DHT22;54685;52.082;5.426;2022-10-16T05:31:50;12.50;99.90
67890;DHT22;54685;52.082;5.426;2022-10-16T05:34:18;12.60;99.90
67890;DHT22;54685;52.082;5.426;2022-10-16T05:36:45;12.50;99.90
67890;DHT22;54685;52.082;5.426;2022-10-16T05:39:14;12.50;99.90
67890;DHT22;54685;52.082;5.426;2022-10-16T05:41:42;12.50;99.90
67890;DHT22;54685;52.082;5.426;2022-10-16T05:44:09;12.50;99.90
67890;DHT22;54685;52.082;5.426;2022-10-16T05:46:35;12.50;99.90
67890;DHT22;54685;52.082;5.426;2022-10-16T05:49:02;12.50;99.90
67890;DHT22;54685;52.082;5.426;2022-10-16T05:51:29;12.50;99.90
67890;DHT22;54685;52.082;5.426;2022-10-16T05:53:56;12.50;99.90
67890;DHT22;54685;52.082;5.426;2022-10-16T05:56:23;12.60;99.90
67890;DHT22;54685;52.082;5.426;2022-10-16T05:58:49;12.60;99.90
67890;DHT22;54685;52.082;5.426;2022-10-16T06:01:18;12.60;99.90
67890;DHT22;54685;52.082;5.426;2022-10-16T06:03:45;12.60;99.90
67890;DHT22;54685;52.082;5.426;2022-10-16T06:06:14;12.60;99.90
67890;DHT22;54685;52.082;5.426;2022-10-16T06:08:42;12.70;99.90
67890;DHT22;54685;52.082;5.426;2022-10-16T06:11:12;12.70;99.90
67890;DHT22;54685;52.082;5.426;2022-10-16T06:13:40;12.80;99.90
67890;DHT22;54685;52.082;5.426;2022-10-16T06:16:09;12.70;99.90
67890;DHT22;54685;52.082;5.426;2022-10-16T06:18:36;12.80;99.90
67890;DHT22;54685;52.082;5.426;2022-10-16T06:21:16;12.80;99.90
67890;DHT22;54685;52.082;5.426;2022-10-16T06:23:43;12.80;99.90
67890;DHT22;54685;52.082;5.426;2022-10-16T06:26:14;12.80;99.90
67890;DHT22;54685;52.082;5.426;2022-10-16T06:28:42;12.80;99.90
67890;DHT22;54685;52.082;5.426;2022-10-16T06:31:10;12.90;99.90
67890;DHT22;54685;52.082;5.426;2022-10-16T06:33:37;12.90;99.90
67890;DHT22;54685;52.082;5.426;2022-10-16T06:36:13;12.90;99.90
67890;DHT22;54685;52.082;5.426;2022-10-16T06:38:41;12.90;99.90
67890;DHT22;54685;52.082;5.426;2022-10-16T06:41:11;12.90;99.90
67890;DHT22;54685;52.082;5.426;2022-10-16T06:43:38;13.00;99.90
67890;DHT22;54685;52.082;5.426;2022-10-16T06:46:06;13.00;99.90
67890;DHT22;54685;52.082;5.426;2022-10-16T06:48:37;13.00;99.90
67890;DHT22;54685;52.082;5.426;2022-10-16T06:51:05;13.00;99.90
67890;DHT22;54685;52.082;5.426;2022-10-16T06:53:34;13.00;99.90
67890;DHT22;54685;52.082;5.426;2022-10-16T06:58:42;13.10;99.90
67890;DHT22;54685;52.082;5.426;2022-10-16T07:01:09;13.10;99.90
67890;DHT22;54685;52.082;5.426;2022-10-16T07:03:38;13.10;99.90
67890;DHT22;54685;52.082;5.426;2022-10-16T07:06:06;13.10;99.90
67890;DHT22;54685;52.082;5.426;2022-10-16T07:08:34;13.10;99.90
67890;DHT22;54685;52.082;5.426;2022-10-16T07:11:03;13.20;99.90
67890;DHT22;54685;52.082;5.426;2022-10-16T07:13:33;13.20;99.90
67890;DHT22;54685;52.082;5.426;2022-10-16T07:18:36;13.20;99.90
67890;DHT22;54685;52.082;5.426;2022-10-16T07:21:17;13.20;99.90
67890;DHT22;54685;52.082;5.426;2022-10-16T07:23:44;13.20;99.90
67890;DHT22;54685;52.082;5.426;2022-10-16T07:26:11;13.20;99.90
67890;DHT22;54685;52.082;5.426;2022-10-16T07:28:38;13.20;99.90
67890;DHT22;54685;52.082;5.426;2022-10-16T07:31:18;13.20;99.90
67890;DHT22;54685;52.082;5.426;2022-10-16T07:33:46;13.20;99.90
67890;DHT22;54685;52.082;5.426;2022-10-16T07:36:16;13.20;99.90
67890;DHT22;54685;52.082;5.426;2022-10-16T07:38:43;13.20;99.90
67890;DHT22;54685;52.082;5.426;2022-10-16T07:41:17;13.30;99.90
67890;DHT22;54685;52.082;5.426;2022-10-16T07:43:49;13.30;99.90
67890;DHT22;54685;52.082;5.426;2022-10-16T07:46:17;13.30;99.90
67890;DHT22;54685;52.082;5.426;2022-10-16T07:48:44;13.40;99.90
67890;DHT22;54685;52.082;5.426;2022-10-16T07:51:16;13.50;99.90
67890;DHT22;54685;52.082;5.426;2022-10-16T07:53:46;13.50;99.90
67890;DHT22;54685;52.082;5.426;2022-10-16T07:56:13;13.50;99.90
67890;DHT22;54685;52.082;5.426;2022-10-16T07:58:40;13.50;99.90
67890;DHT22;54685;52.082;5.426;2022-10-16T08:01:12;13.50;99.90
67890;DHT22;54685;52.082;5.426;2022-10-16T08:03:47;13.50;99.90
67890;DHT22;54685;52.082;5.426;2022-10-16T08:06:15;13.50;99.90
67890;DHT22;54685;52.082;5.426;2022-10-16T08:08:42;13.50;99.90
67890;DHT22;54685;52.082;5.426;2022-10-16T08:11:09;13.60;99.90
67890;DHT22;54685;52.082;5.426;2022-10-16T08:13:36;13.60;99.90
67890;DHT22;54685;52.082;5.426;2022-10-16T08:16:04;13.70;99.90
67890;DHT22;54685;52.082;5.426;2022-10-16T08:18:35;13.70;99.90
67890;DHT22;54685;52.082;5.426;2022-10-16T08:21:03;13.70;99.90
67890;DHT22;54685;52.082;5.426;2022-10-16T08:23:32;13.80;99.90
67890;DHT22;54685;52.082;5.426;2022-10-16T08:26:05;13.80;99.90
67890;DHT22;54685;52.082;5.426;2022-10-16T08:28:32;13.80;99.90
67890;DHT22;54685;52.082;5.426;2022-10-16T08:31:13;13.90;99.90
67890;DHT22;54685;52.082;5.426;2022-10-16T08:33:41;13.90;99.90
67890;DHT22;54685;52.082;5.426;2022-10-16T08:36:10;14.00;99.90
67890;DHT22;54685;52.082;5.426;2022-10-16T08:38:37;14.00;99.90
67890;DHT22;54685;52.082;5.426;2022-10-16T08:41:17;14.10;99.90
67890;DHT22;54685;52.082;5.426;2022-10-16T08:46:29;14.20;99.90
67890;DHT22;54685;52.082;5.426;2022-10-16T08:49:00;14.30;99.90
67890;DHT22;54685;52.082;5.426;2022-10-16T08:51:33;14.40;99.90
67890;DHT22;54685;52.082;5.426;2022-10-16T08:56:45;14.50;99.90
67890;DHT22;54685;52.082;5.426;2022-10-16T08:59:14;14.60;99.90
67890;DHT22;54685;52.082;5.426;2022-10-16T09:01:47;14.60;99.90
67890;DHT22;54685;52.082;5.426;2022-10-16T09:04:48;14.70;99.90
67890;DHT22;54685;52.082;5.426;2022-10-16T09:12:54;14.70;99.90
67890;DHT22;54685;52.082;5.426;2022-10-16T09:15:29;14.80;99.90
67890;DHT22;54685;52.082;5.426;2022-10-16T09:18:18;14.90;99.90
67890;DHT22;54685;52.082;5.426;2022-10-16T09:23:32;15.00;99.90
67890;DHT22;54685;52.082;5.426;2022-10-16T09:26:01;15.00;99.90
67890;DHT22;54685;52.082;5.426;2022-10-16T09:28:29;15.10;99.90
67890;DHT22;54685;52.082;5.426;2022-10-16T09:30:56;15.20;99.90
67890;DHT22;54685;52.082;5.426;2022-10-16T09:33:29;15.20;99.90
67890;DHT22;54685;52.082;5.426;2022-10-16T09:35:57;15.30;99.90
67890;DHT22;54685;52.082;5.426;2022-10-16T09:38:33;15.40;99.90
67890;DHT22;54685;52.082;5.426;2022-10-16T09:41:02;15.60;99.90
67890;DHT22;54685;52.082;5.426;2022-10-16T09:46:22;16.20;99.90
67890;DHT22;54685;52.082;5.426;2022-10-16T09:48:51;16.70;99.90
67890;DHT22;54685;52.082;5.426;2022-10-16T09:56:30;17.40;99.90
67890;DHT22;54685;52.082;5.426;2022-10-16T10:01:47;17.20;99.90
67890;DHT22;54685;52.082;5.426;2022-10-16T10:04:15;17.30;99.90
67890;DHT22;54685;52.082;5.426;2022-10-16T10:06:58;17.40;99.90
67890;DHT22;54685;52.082;5.426;2022-10-16T10:09:30;17.40;99.90
67890;DHT22;54685;52.082;5.426;2022-10-16T10:12:02;17.20;99.90
67890;DHT22;54685;52.082;5.426;2022-10-16T10:14:31;17.00;99.90
67890;DHT22;54685;52.082;5.426;2022-10-16T10:22:43;16.80;99.90
67890;DHT22;54685;52.082;5.426;2022-10-16T10:33:28;19.00;99.90
67890;DHT22;54685;52.082;5.426;2022-10-16T10:36:12;19.70;99.90
67890;DHT22;54685;52.082;5.426;2022-10-16T10:38:49;19.80;99.90
67890;DHT22;54685;52.082;5.426;2022-10-16T10:52:36;20.10;97.40
67890;DHT22;54685;52.082;5.426;2022-10-16T10:55:21;20.20;92.60
67890;DHT22;54685;52.082;5.426;2022-10-16T11:00:23;20.30;96.00
67890;DHT22;54685;52.082;5.426;2022-10-16T11:08:00;19.20;99.90
67890;DHT22;54685;52.082;5.426;2022-10-16T11:10:34;19.00;99.30
67890;DHT22;54685;52.082;5.426;2022-10-16T11:13:31;19.00;99.90
67890;DHT22;54685;52.082;5.426;2022-10-16T11:16:03;18.80;99.60
67890;DHT22;54685;52.082;5.426;2022-10-16T11:19:22;18.50;99.90
67890;DHT22;54685;52.082;5.426;2022-10-16T11:25:28;18.60;99.90
67890;DHT22;54685;52.082;5.426;2022-10-16T11:27:42;19.00;99.90
67890;DHT22;54685;52.082;5.426;2022-10-16T11:30:20;19.30;95.10
67890;DHT22;54685;52.082;5.426;2022-10-16T11:36:04;19.50;94.20
67890;DHT22;54685;52.082;5.426;2022-10-16T11:44:53;18.80;90.70
67890;DHT22;54685;52.082;5.426;2022-10-16T11:55:47;18.00;92.40
67890;DHT22;54685;52.082;5.426;2022-10-16T12:03:40;18.00;96.60
67890;DHT22;54685;52.082;5.426;2022-10-16T12:08:46;18.20;97.20
67890;DHT22;54685;52.082;5.426;2022-10-16T12:14:59;18.60;93.80
67890;DHT22;54685;52.082;5.426;2022-10-16T12:19:22;19.10;93.00
67890;DHT22;54685;52.082;5.426;2022-10-16T12:21:51;19.30;93.00
67890;DHT22;54685;52.082;5.426;2022-10-16T12:24:36;19.40;79.90
67890;DHT22;54685;52.082;5.426;2022-10-16T12:27:06;19.40;73.90
67890;DHT22;54685;52.082;5.426;2022-10-16T12:32:02;19.30;72.10
67890;DHT22;54685;52.082;5.426;2022-10-16T12:34:42;19.40;74.80
67890;DHT22;54685;52.082;5.426;2022-10-16T12:37:11;19.50;77.00
67890;DHT22;54685;52.082;5.426;2022-10-16T12:39:39;19.50;69.50
67890;DHT22;54685;52.082;5.426;2022-10-16T12:44:54;19.50;75.70
67890;DHT22;54685;52.082;5.426;2022-10-16T12:47:35;19.60;82.70
67890;DHT22;54685;52.082;5.426;2022-10-16T12:50:03;19.60;83.10
67890;DHT22;54685;52.082;5.426;2022-10-16T12:52:39;19.60;85.70
67890;DHT22;54685;52.082;5.426;2022-10-16T12:55:17;19.70;87.50
67890;DHT22;54685;52.082;5.426;2022-10-16T12:58:49;19.70;86.70
67890;DHT22;54685;52.082;5.426;2022-10-16T13:00:57;19.70;87.90
67890;DHT22;54685;52.082;5.426;2022-10-16T13:03:45;19.70;90.30
67890;DHT22;54685;52.082;5.426;2022-10-16T13:12:19;19.70;91.10
67890;DHT22;54685;52.082;5.426;2022-10-16T13:23:50;19.60;92.10
67890;DHT22;54685;52.082;5.426;2022-10-16T13:29:01;19.60;92.00
67890;DHT22;54685;52.082;5.426;2022-10-16T13:31:28;19.50;92.30
67890;DHT22;54685;52.082;5.426;2022-10-16T13:33:58;19.50;90.70
67890;DHT22;54685;52.082;5.426;2022-10-16T13:36:34;19.50;88.80
67890;DHT22;54685;52.082;5.426;2022-10-16T13:39:13;19.40;87.20
67890;DHT22;54685;52.082;5.426;2022-10-16T13:41:40;19.40;86.80
67890;DHT22;54685;52.082;5.426;2022-10-16T13:44:22;19.30;90.00
67890;DHT22;54685;52.082;5.426;2022-10-16T13:47:02;19.30;91.20
67890;DHT22;54685;52.082;5.426;2022-10-16T13:49:29;19.20;90.50
67890;DHT22;54685;52.082;5.426;2022-10-16T13:51:57;19.20;91.40
67890;DHT22;54685;52.082;5.426;2022-10-16T13:54:26;19.20;91.60
67890;DHT22;54685;52.082;5.426;2022-10-16T13:56:53;19.20;91.00
67890;DHT22;54685;52.082;5.426;2022-10-16T13:59:36;19.10;90.60
67890;DHT22;54685;52.082;5.426;2022-10-16T14:05:02;19.00;89.00
67890;DHT22;54685;52.082;5.426;2022-10-16T14:07:32;18.90;91.60
67890;DHT22;54685;52.082;5.426;2022-10-16T14:10:06;18.90;92.50
67890;DHT22;54685;52.082;5.426;2022-10-16T14:12:34;19.00;91.80
67890;DHT22;54685;52.082;5.426;2022-10-16T14:15:01;19.00;91.70
67890;DHT22;54685;52.082;5.426;2022-10-16T14:17:30;19.00;92.10
67890;DHT22;54685;52.082;5.426;2022-10-16T14:19:59;18.90;92.60
67890;DHT22;54685;52.082;5.426;2022-10-16T14:25:16;18.90;93.10
67890;DHT22;54685;52.082;5.426;2022-10-16T14:30:29;18.80;92.30
67890;DHT22;54685;52.082;5.426;2022-10-16T14:33:19;18.80;93.50
67890;DHT22;54685;52.082;5.426;2022-10-16T14:35:46;18.70;93.10
67890;DHT22;54685;52.082;5.426;2022-10-16T14:38:25;18.70;94.50
67890;DHT22;54685;52.082;5.426;2022-10-16T14:40:52;18.80;93.80
67890;DHT22;54685;52.082;5.426;2022-10-16T14:43:22;18.70;94.60
67890;DHT22;54685;52.082;5.426;2022-10-16T14:45:52;18.70;95.30
67890;DHT22;54685;52.082;5.426;2022-10-16T14:48:20;18.70;95.50
67890;DHT22;54685;52.082;5.426;2022-10-16T14:50:47;18.70;95.40
67890;DHT22;54685;52.082;5.426;2022-10-16T14:53:14;18.50;95.70
67890;DHT22;54685;52.082;5.426;2022-10-16T14:55:42;18.60;96.10
67890;DHT22;54685;52.082;5.426;2022-10-16T14:58:20;18.60;96.10
67890;DHT22;54685;52.082;5.426;2022-10-16T15:00:48;18.50;96.30
67890;DHT22;54685;52.082;5.426;2022-10-16T15:03:15;18.50;97.50
67890;DHT22;54685;52.082;5.426;2022-10-16T15:05:42;18.40;98.40
67890;DHT22;54685;52.082;5.426;2022-10-16T15:08:09;18.40;98.90
67890;DHT22;54685;52.082;5.426;2022-10-16T15:10:40;18.40;98.50
67890;DHT22;54685;52.082;5.426;2022-10-16T15:13:11;18.30;94.90
67890;DHT22;54685;52.082;5.426;2022-10-16T15:15:47;18.20;95.70
67890;DHT22;54685;52.082;5.426;2022-10-16T15:18:15;18.20;95.30
67890;DHT22;54685;52.082;5.426;2022-10-16T15:20:49;18.10;96.30
67890;DHT22;54685;52.082;5.426;2022-10-16T15:23:19;18.00;97.10
67890;DHT22;54685;52.082;5.426;2022-10-16T15:25:48;17.90;98.70
67890;DHT22;54685;52.082;5.426;2022-10-16T15:28:16;17.90;99.90
67890;DHT22;54685;52.082;5.426;2022-10-16T15:30:43;17.80;99.90
67890;DHT22;54685;52.082;5.426;2022-10-16T15:33:17;17.70;99.90
67890;DHT22;54685;52.082;5.426;2022-10-16T15:35:47;17.60;99.90
67890;DHT22;54685;52.082;5.426;2022-10-16T15:38:15;17.40;99.90
67890;DHT22;54685;52.082;5.426;2022-10-16T15:40:42;17.30;99.90
67890;DHT22;54685;52.082;5.426;2022-10-16T15:43:09;17.30;99.90
67890;DHT22;54685;52.082;5.426;2022-10-16T15:45:37;17.30;99.90
67890;DHT22;54685;52.082;5.426;2022-10-16T15:48:10;17.20;99.90
67890;DHT22;54685;52.082;5.426;2022-10-16T15:50:38;17.20;99.90
67890;DHT22;54685;52.082;5.426;2022-10-16T15:53:05;17.10;99.90
67890;DHT22;54685;52.082;5.426;2022-10-16T15:55:33;17.10;99.90
67890;DHT22;54685;52.082;5.426;2022-10-16T15:58:00;17.00;99.90
67890;DHT22;54685;52.082;5.426;2022-10-16T16:00:27;17.00;99.90
67890;DHT22;54685;52.082;5.426;2022-10-16T16:02:54;17.00;99.90
67890;DHT22;54685;52.082;5.426;2022-10-16T16:05:22;16.90;99.90
67890;DHT22;54685;52.082;5.426;2022-10-16T16:07:50;16.90;99.90
67890;DHT22;54685;52.082;5.426;2022-10-16T16:10:17;16.90;99.90
67890;DHT22;54685;52.082;5.426;2022-10-16T16:12:47;16.80;99.90
67890;DHT22;54685;52.082;5.426;2022-10-16T16:15:22;16.80;99.90
67890;DHT22;54685;52.082;5.426;2022-10-16T16:17:49;16.70;99.90
67890;DHT22;54685;52.082;5.426;2022-10-16T16:20:16;16.70;99.90
67890;DHT22;54685;52.082;5.426;2022-10-16T16:22:43;16.60;99.90
67890;DHT22;54685;52.082;5.426;2022-10-16T16:25:10;16.60;99.90
67890;DHT22;54685;52.082;5.426;2022-10-16T16:27:37;16.60;99.90
67890;DHT22;54685;52.082;5.426;2022-10-16T16:30:10;16.50;99.90
67890;DHT22;54685;52.082;5.426;2022-10-16T16:32:45;16.50;99.90
67890;DHT22;54685;52.082;5.426;2022-10-16T16:35:12;16.40;99.90
67890;DHT22;54685;52.082;5.426;2022-10-16T16:37:39;16.40;99.90
67890;DHT22;54685;52.082;5.426;2022-10-16T16:40:06;16.30;99.90
67890;DHT22;54685;52.082;5.426;2022-10-16T16:42:32;16.30;99.90
67890;DHT22;54685;52.082;5.426;2022-10-16T16:44:59;16.20;99.90
67890;DHT22;54685;52.082;5.426;2022-10-16T16:47:26;16.10;99.90
67890;DHT22;54685;52.082;5.426;2022-10-16T16:49:54;16.00;99.90
67890;DHT22;54685;52.082;5.426;2022-10-16T16:52:21;16.00;99.90
67890;DHT22;54685;52.082;5.426;2022-10-16T16:54:48;16.00;99.90
67890;DHT22;54685;52.082;5.426;2022-10-16T16:57:20;15.90;99.90
67890;DHT22;54685;52.082;5.426;2022-10-16T16:59:47;15.90;99.90
67890;DHT22;54685;52.082;5.426;2022-10-16T17:02:16;15.90;99.90
67890;DHT22;54685;52.082;5.426;2022-10-16T17:04:46;15.90;99.90
67890;DHT22;54685;52.082;5.426;2022-10-16T17:07:12;15.90;99.90
67890;DHT22;54685;52.082;5.426;2022-10-16T17:09:40;15.90;99.90
67890;DHT22;54685;52.082;5.426;2022-10-16T17:12:07;15.80;99.90
67890;DHT22;54685;52.082;5.426;2022-10-16T17:14:34;15.70;99.90
67890;DHT22;54685;52.082;5.426;2022-10-16T17:17:00;15.70;99.90
67890;DHT22;54685;52.082;5.426;2022-10-16T17:19:27;15.60;99.90
67890;DHT22;54685;52.082;5.426;2022-10-16T17:21:54;15.50;99.90
67890;DHT22;54685;52.082;5.426;2022-10-16T17:24:21;15.50;99.90
67890;DHT22;54685;52.082;5.426;2022-10-16T17:26:48;15.50;99.90
67890;DHT22;54685;52.082;5.426;2022-10-16T17:29:16;15.50;99.90
67890;DHT22;54685;52.082;5.426;2022-10-16T17:31:44;15.50;99.90
67890;DHT22;54685;52.082;5.426;2022-10-16T17:34:13;15.50;99.90
67890;DHT22;54685;52.082;5.426;2022-10-16T17:36:40;15.50;99.90
67890;DHT22;54685;52.082;5.426;2022-10-16T17:39:14;15.50;99.90
67890;DHT22;54685;52.082;5.426;2022-10-16T17:41:43;15.50;99.90
67890;DHT22;54685;52.082;5.426;2022-10-16T17:44:11;15.50;99.90
67890;DHT22;54685;52.082;5.426;2022-10-16T17:46:50;15.40;99.90
67890;DHT22;54685;52.082;5.426;2022-10-16T17:49:17;15.40;99.90
67890;DHT22;54685;52.082;5.426;2022-10-16T17:51:45;15.40;99.90
67890;DHT22;54685;52.082;5.426;2022-10-16T17:54:12;15.40;99.90
67890;DHT22;54685;52.082;5.426;2022-10-16T17:56:40;15.40;99.90
67890;DHT22;54685;52.082;5.426;2022-10-16T17:59:09;15.30;99.90
67890;DHT22;54685;52.082;5.426;2022-10-16T18:01:38;15.30;99.90
67890;DHT22;54685;52.082;5.426;2022-10-16T18:04:10;15.30;99.90
67890;DHT22;54685;52.082;5.426;2022-10-16T18:06:39;15.20;99.90
67890;DHT22;54685;52.082;5.426;2022-10-16T18:09:09;15.20;99.90
67890;DHT22;54685;52.082;5.426;2022-10-16T18:11:36;15.20;99.90
67890;DHT22;54685;52.082;5.426;2022-10-16T18:14:03;15.10;99.90